Stanley, Canada
Current Conditions -  °F | °C
As of 4:00 PM on Friday 31 Oct 2014 (Local Time) from CYFC Reporting Station
Overcast Overcast  
Wind Chill: 46°   Ceiling: 4200
Heat Index: 46°   Visibility: 9mi
Dew Point: 32°   Wind: 3mph
Humidity: 57%   Direction: 40°NE
Pressure: 30.06"   Gusts: NA
Location:  46.28°N, 66.73°W
Report Text: CYFC 311900Z AUTO 04003KT 9SM OVC042 08/M00 A3006 RMK SLP180
Loading
Personal Weather Stations






























Interactive Weather Map
Tropical Storm Tracking
New forecast layout! Learn more

10-Day Weather Forecast

Advertisements
Track Severe Weather on mobile